sensor_id;sensor_type;location;lat;lon;timestamp;temperature;humidity
9973;DHT22;5027;53.560;10.062;2024-03-23T00:51:16;12.70;99.90
9973;DHT22;5027;53.560;10.062;2024-03-23T00:56:11;13.10;99.90
9973;DHT22;5027;53.560;10.062;2024-03-23T00:58:40;13.40;99.90
9973;DHT22;5027;53.560;10.062;2024-03-23T01:01:06;13.20;99.90
9973;DHT22;5027;53.560;10.062;2024-03-23T01:03:32;13.00;99.90
9973;DHT22;5027;53.560;10.062;2024-03-23T01:06:01;12.70;99.90
9973;DHT22;5027;53.560;10.062;2024-03-23T01:08:30;12.90;99.90
9973;DHT22;5027;53.560;10.062;2024-03-23T01:11:02;12.80;99.90
9973;DHT22;5027;53.560;10.062;2024-03-23T01:13:31;12.70;99.90
9973;DHT22;5027;53.560;10.062;2024-03-23T01:16:04;12.80;99.90
9973;DHT22;5027;53.560;10.062;2024-03-23T01:18:30;12.90;99.90
9973;DHT22;5027;53.560;10.062;2024-03-23T01:20:56;12.70;99.90
9973;DHT22;5027;53.560;10.062;2024-03-23T01:23:25;12.60;99.90
9973;DHT22;5027;53.560;10.062;2024-03-23T01:25:55;12.50;99.90
9973;DHT22;5027;53.560;10.062;2024-03-23T01:28:22;12.50;99.90
9973;DHT22;5027;53.560;10.062;2024-03-23T01:30:48;12.40;99.90
9973;DHT22;5027;53.560;10.062;2024-03-23T01:33:14;12.70;99.90
9973;DHT22;5027;53.560;10.062;2024-03-23T01:35:40;12.80;99.90
9973;DHT22;5027;53.560;10.062;2024-03-23T01:38:06;12.70;99.90
9973;DHT22;5027;53.560;10.062;2024-03-23T01:40:32;12.60;99.90
9973;DHT22;5027;53.560;10.062;2024-03-23T01:43:02;12.50;99.90
9973;DHT22;5027;53.560;10.062;2024-03-23T01:45:32;12.30;99.90
9973;DHT22;5027;53.560;10.062;2024-03-23T01:47:58;12.40;99.90
9973;DHT22;5027;53.560;10.062;2024-03-23T01:50:25;12.50;99.90
9973;DHT22;5027;53.560;10.062;2024-03-23T01:52:51;12.60;99.90
9973;DHT22;5027;53.560;10.062;2024-03-23T01:55:18;12.80;99.90
9973;DHT22;5027;53.560;10.062;2024-03-23T01:57:49;12.60;99.90
9973;DHT22;5027;53.560;10.062;2024-03-23T02:00:18;12.50;99.90
9973;DHT22;5027;53.560;10.062;2024-03-23T02:02:47;12.30;99.90
9973;DHT22;5027;53.560;10.062;2024-03-23T02:05:14;12.40;99.90
9973;DHT22;5027;53.560;10.062;2024-03-23T02:07:42;12.70;99.90
9973;DHT22;5027;53.560;10.062;2024-03-23T02:10:09;12.60;99.90
9973;DHT22;5027;53.560;10.062;2024-03-23T02:12:36;12.90;99.90
9973;DHT22;5027;53.560;10.062;2024-03-23T02:15:03;12.90;99.90
9973;DHT22;5027;53.560;10.062;2024-03-23T02:17:30;12.60;99.90
9973;DHT22;5027;53.560;10.062;2024-03-23T02:19:56;12.40;99.90
9973;DHT22;5027;53.560;10.062;2024-03-23T02:22:25;12.70;99.90
9973;DHT22;5027;53.560;10.062;2024-03-23T02:24:50;12.60;99.90
9973;DHT22;5027;53.560;10.062;2024-03-23T02:27:16;12.40;99.90
9973;DHT22;5027;53.560;10.062;2024-03-23T02:29:42;12.30;99.90
9973;DHT22;5027;53.560;10.062;2024-03-23T02:32:08;12.20;99.90
9973;DHT22;5027;53.560;10.062;2024-03-23T02:34:36;12.20;99.90
9973;DHT22;5027;53.560;10.062;2024-03-23T02:37:02;12.30;99.90
9973;DHT22;5027;53.560;10.062;2024-03-23T02:39:28;12.30;99.90
9973;DHT22;5027;53.560;10.062;2024-03-23T02:41:54;12.20;99.90
9973;DHT22;5027;53.560;10.062;2024-03-23T02:44:20;12.20;99.90
9973;DHT22;5027;53.560;10.062;2024-03-23T02:46:45;12.20;99.90
9973;DHT22;5027;53.560;10.062;2024-03-23T02:49:11;12.20;99.90
9973;DHT22;5027;53.560;10.062;2024-03-23T02:51:37;12.10;99.90
9973;DHT22;5027;53.560;10.062;2024-03-23T02:54:03;12.20;99.90
9973;DHT22;5027;53.560;10.062;2024-03-23T02:56:29;12.40;99.90
9973;DHT22;5027;53.560;10.062;2024-03-23T02:58:54;12.30;99.90
9973;DHT22;5027;53.560;10.062;2024-03-23T03:01:20;12.30;99.90
9973;DHT22;5027;53.560;10.062;2024-03-23T03:03:46;12.20;99.90
9973;DHT22;5027;53.560;10.062;2024-03-23T03:06:12;12.20;99.90
9973;DHT22;5027;53.560;10.062;2024-03-23T03:08:47;12.20;99.90
9973;DHT22;5027;53.560;10.062;2024-03-23T03:11:13;12.10;99.90
9973;DHT22;5027;53.560;10.062;2024-03-23T03:13:39;12.10;99.90
9973;DHT22;5027;53.560;10.062;2024-03-23T03:16:11;12.10;99.90
9973;DHT22;5027;53.560;10.062;2024-03-23T03:18:37;12.40;99.90
9973;DHT22;5027;53.560;10.062;2024-03-23T03:21:04;12.40;99.90
9973;DHT22;5027;53.560;10.062;2024-03-23T03:23:31;12.30;99.90
9973;DHT22;5027;53.560;10.062;2024-03-23T03:25:57;12.00;99.90
9973;DHT22;5027;53.560;10.062;2024-03-23T03:28:23;12.30;99.90
9973;DHT22;5027;53.560;10.062;2024-03-23T03:30:49;12.30;99.90
9973;DHT22;5027;53.560;10.062;2024-03-23T03:33:15;12.10;99.90
9973;DHT22;5027;53.560;10.062;2024-03-23T03:35:41;11.90;99.90
9973;DHT22;5027;53.560;10.062;2024-03-23T03:38:07;12.50;99.90
9973;DHT22;5027;53.560;10.062;2024-03-23T03:40:32;13.40;99.90
9973;DHT22;5027;53.560;10.062;2024-03-23T03:42:58;12.90;99.90
9973;DHT22;5027;53.560;10.062;2024-03-23T03:45:24;12.50;99.90
9973;DHT22;5027;53.560;10.062;2024-03-23T03:47:50;12.30;99.90
9973;DHT22;5027;53.560;10.062;2024-03-23T03:50:15;12.20;99.90
9973;DHT22;5027;53.560;10.062;2024-03-23T03:52:41;12.40;99.90
9973;DHT22;5027;53.560;10.062;2024-03-23T03:55:13;12.40;99.90
9973;DHT22;5027;53.560;10.062;2024-03-23T03:57:39;12.50;99.90
9973;DHT22;5027;53.560;10.062;2024-03-23T04:00:06;12.30;99.90
9973;DHT22;5027;53.560;10.062;2024-03-23T04:02:32;12.40;99.90
9973;DHT22;5027;53.560;10.062;2024-03-23T04:04:57;12.30;99.90
9973;DHT22;5027;53.560;10.062;2024-03-23T04:07:23;12.10;99.90
9973;DHT22;5027;53.560;10.062;2024-03-23T04:09:49;12.10;99.90
9973;DHT22;5027;53.560;10.062;2024-03-23T04:12:15;12.10;99.90
9973;DHT22;5027;53.560;10.062;2024-03-23T04:14:41;11.80;99.90
9973;DHT22;5027;53.560;10.062;2024-03-23T04:17:07;11.80;99.90
9973;DHT22;5027;53.560;10.062;2024-03-23T04:19:33;11.80;99.90
9973;DHT22;5027;53.560;10.062;2024-03-23T04:21:59;11.80;99.90
9973;DHT22;5027;53.560;10.062;2024-03-23T04:24:24;11.80;99.90
9973;DHT22;5027;53.560;10.062;2024-03-23T04:26:52;11.80;99.90
9973;DHT22;5027;53.560;10.062;2024-03-23T04:29:18;11.80;99.90
9973;DHT22;5027;53.560;10.062;2024-03-23T04:31:43;11.90;99.90
9973;DHT22;5027;53.560;10.062;2024-03-23T04:34:10;11.90;99.90
9973;DHT22;5027;53.560;10.062;2024-03-23T04:36:35;11.90;99.90
9973;DHT22;5027;53.560;10.062;2024-03-23T04:39:01;11.90;99.90
9973;DHT22;5027;53.560;10.062;2024-03-23T04:41:27;11.70;99.90
9973;DHT22;5027;53.560;10.062;2024-03-23T04:43:53;11.80;99.90
9973;DHT22;5027;53.560;10.062;2024-03-23T04:46:19;11.80;99.90
9973;DHT22;5027;53.560;10.062;2024-03-23T04:48:46;11.80;99.90
9973;DHT22;5027;53.560;10.062;2024-03-23T04:51:20;11.90;99.90
9973;DHT22;5027;53.560;10.062;2024-03-23T04:53:47;12.20;99.90
9973;DHT22;5027;53.560;10.062;2024-03-23T04:56:14;12.10;99.90
9973;DHT22;5027;53.560;10.062;2024-03-23T04:58:40;12.40;99.90
9973;DHT22;5027;53.560;10.062;2024-03-23T05:01:06;12.30;99.90
9973;DHT22;5027;53.560;10.062;2024-03-23T05:03:32;12.20;99.90
9973;DHT22;5027;53.560;10.062;2024-03-23T05:05:58;12.00;99.90
9973;DHT22;5027;53.560;10.062;2024-03-23T05:08:24;11.90;99.90
9973;DHT22;5027;53.560;10.062;2024-03-23T05:10:49;11.80;99.90
9973;DHT22;5027;53.560;10.062;2024-03-23T05:13:15;11.70;99.90
9973;DHT22;5027;53.560;10.062;2024-03-23T05:15:41;11.60;99.90
9973;DHT22;5027;53.560;10.062;2024-03-23T05:18:07;11.70;99.90
9973;DHT22;5027;53.560;10.062;2024-03-23T05:20:33;11.60;99.90
9973;DHT22;5027;53.560;10.062;2024-03-23T05:22:58;11.70;99.90
9973;DHT22;5027;53.560;10.062;2024-03-23T05:25:24;11.60;99.90
9973;DHT22;5027;53.560;10.062;2024-03-23T05:27:50;11.70;99.90
9973;DHT22;5027;53.560;10.062;2024-03-23T05:30:16;11.70;99.90
9973;DHT22;5027;53.560;10.062;2024-03-23T05:32:42;11.60;99.90
9973;DHT22;5027;53.560;10.062;2024-03-23T05:35:09;11.50;99.90
9973;DHT22;5027;53.560;10.062;2024-03-23T05:37:35;11.50;99.90
9973;DHT22;5027;53.560;10.062;2024-03-23T05:40:01;11.70;99.90
9973;DHT22;5027;53.560;10.062;2024-03-23T05:42:28;11.70;99.90
9973;DHT22;5027;53.560;10.062;2024-03-23T05:44:53;11.60;99.90
9973;DHT22;5027;53.560;10.062;2024-03-23T05:47:19;11.50;99.90
9973;DHT22;5027;53.560;10.062;2024-03-23T05:49:46;11.60;99.90
9973;DHT22;5027;53.560;10.062;2024-03-23T05:52:12;11.70;99.90
9973;DHT22;5027;53.560;10.062;2024-03-23T05:54:38;11.70;99.90
9973;DHT22;5027;53.560;10.062;2024-03-23T05:57:03;11.90;99.90
9973;DHT22;5027;53.560;10.062;2024-03-23T05:59:32;11.80;99.90
9973;DHT22;5027;53.560;10.062;2024-03-23T06:02:04;11.90;99.90
9973;DHT22;5027;53.560;10.062;2024-03-23T06:04:29;11.80;99.90
9973;DHT22;5027;53.560;10.062;2024-03-23T06:06:55;12.40;99.90
9973;DHT22;5027;53.560;10.062;2024-03-23T06:09:23;12.10;99.90
9973;DHT22;5027;53.560;10.062;2024-03-23T06:11:49;12.40;99.90
9973;DHT22;5027;53.560;10.062;2024-03-23T06:14:14;12.20;99.90
9973;DHT22;5027;53.560;10.062;2024-03-23T06:16:40;12.10;99.90
9973;DHT22;5027;53.560;10.062;2024-03-23T06:19:07;12.10;99.90
9973;DHT22;5027;53.560;10.062;2024-03-23T06:21:44;12.00;99.90
9973;DHT22;5027;53.560;10.062;2024-03-23T06:24:21;11.90;99.90
9973;DHT22;5027;53.560;10.062;2024-03-23T06:26:47;12.10;99.90
9973;DHT22;5027;53.560;10.062;2024-03-23T06:29:12;12.40;99.90
9973;DHT22;5027;53.560;10.062;2024-03-23T06:31:38;12.20;99.90
9973;DHT22;5027;53.560;10.062;2024-03-23T06:34:04;12.00;99.90
9973;DHT22;5027;53.560;10.062;2024-03-23T06:36:30;11.90;99.90
9973;DHT22;5027;53.560;10.062;2024-03-23T06:38:56;12.30;99.90
9973;DHT22;5027;53.560;10.062;2024-03-23T06:41:23;12.20;99.90
9973;DHT22;5027;53.560;10.062;2024-03-23T06:43:48;13.10;99.90
9973;DHT22;5027;53.560;10.062;2024-03-23T06:46:14;13.10;99.90
9973;DHT22;5027;53.560;10.062;2024-03-23T06:48:40;13.70;99.90
9973;DHT22;5027;53.560;10.062;2024-03-23T06:51:06;13.00;99.90
9973;DHT22;5027;53.560;10.062;2024-03-23T06:53:32;13.30;99.90
9973;DHT22;5027;53.560;10.062;2024-03-23T06:55:58;12.90;99.90
9973;DHT22;5027;53.560;10.062;2024-03-23T06:58:24;13.20;99.90
9973;DHT22;5027;53.560;10.062;2024-03-23T07:00:50;13.50;99.90
9973;DHT22;5027;53.560;10.062;2024-03-23T07:03:17;13.10;99.90
9973;DHT22;5027;53.560;10.062;2024-03-23T07:05:43;13.20;99.90
9973;DHT22;5027;53.560;10.062;2024-03-23T07:08:10;13.30;99.90
9973;DHT22;5027;53.560;10.062;2024-03-23T07:10:39;12.70;99.90
9973;DHT22;5027;53.560;10.062;2024-03-23T07:13:05;12.60;99.90
9973;DHT22;5027;53.560;10.062;2024-03-23T07:15:31;12.80;99.90
9973;DHT22;5027;53.560;10.062;2024-03-23T07:17:57;13.10;99.90
9973;DHT22;5027;53.560;10.062;2024-03-23T07:20:25;12.50;99.90
9973;DHT22;5027;53.560;10.062;2024-03-23T07:22:52;12.30;99.90
9973;DHT22;5027;53.560;10.062;2024-03-23T07:25:17;12.70;99.90
9973;DHT22;5027;53.560;10.062;2024-03-23T07:27:43;12.60;99.90
9973;DHT22;5027;53.560;10.062;2024-03-23T07:30:09;12.30;99.90
9973;DHT22;5027;53.560;10.062;2024-03-23T07:32:35;12.40;99.90
9973;DHT22;5027;53.560;10.062;2024-03-23T07:35:01;13.70;99.90
9973;DHT22;5027;53.560;10.062;2024-03-23T07:37:28;14.00;99.90
9973;DHT22;5027;53.560;10.062;2024-03-23T07:39:54;13.40;99.90
9973;DHT22;5027;53.560;10.062;2024-03-23T07:42:20;13.10;99.90
9973;DHT22;5027;53.560;10.062;2024-03-23T07:44:46;12.50;99.90
9973;DHT22;5027;53.560;10.062;2024-03-23T07:47:12;13.00;99.90
9973;DHT22;5027;53.560;10.062;2024-03-23T07:49:38;12.70;99.90
9973;DHT22;5027;53.560;10.062;2024-03-23T07:52:08;12.40;99.90
9973;DHT22;5027;53.560;10.062;2024-03-23T07:54:33;13.40;99.90
9973;DHT22;5027;53.560;10.062;2024-03-23T07:56:59;13.40;99.90
9973;DHT22;5027;53.560;10.062;2024-03-23T07:59:25;13.40;99.90
9973;DHT22;5027;53.560;10.062;2024-03-23T08:01:51;13.60;99.90
9973;DHT22;5027;53.560;10.062;2024-03-23T08:04:17;13.50;99.90
9973;DHT22;5027;53.560;10.062;2024-03-23T08:06:42;13.00;99.90
9973;DHT22;5027;53.560;10.062;2024-03-23T08:09:08;13.50;99.90
9973;DHT22;5027;53.560;10.062;2024-03-23T08:11:34;13.70;99.90
9973;DHT22;5027;53.560;10.062;2024-03-23T08:14:04;13.30;99.90
9973;DHT22;5027;53.560;10.062;2024-03-23T08:16:31;12.80;99.90
9973;DHT22;5027;53.560;10.062;2024-03-23T08:18:57;13.60;99.90
9973;DHT22;5027;53.560;10.062;2024-03-23T08:21:23;13.40;99.90
9973;DHT22;5027;53.560;10.062;2024-03-23T08:23:50;14.00;99.90
9973;DHT22;5027;53.560;10.062;2024-03-23T08:26:16;14.10;99.90
9973;DHT22;5027;53.560;10.062;2024-03-23T08:28:43;14.30;99.90
9973;DHT22;5027;53.560;10.062;2024-03-23T08:31:13;14.30;99.90
9973;DHT22;5027;53.560;10.062;2024-03-23T08:33:40;14.00;99.90
9973;DHT22;5027;53.560;10.062;2024-03-23T08:36:09;14.70;99.90
9973;DHT22;5027;53.560;10.062;2024-03-23T08:38:37;14.50;99.90
9973;DHT22;5027;53.560;10.062;2024-03-23T08:41:08;14.30;99.90
9973;DHT22;5027;53.560;10.062;2024-03-23T08:43:39;13.70;99.90
9973;DHT22;5027;53.560;10.062;2024-03-23T08:46:06;13.70;99.90
9973;DHT22;5027;53.560;10.062;2024-03-23T08:48:36;14.00;99.90
9973;DHT22;5027;53.560;10.062;2024-03-23T08:51:07;13.60;99.90
9973;DHT22;5027;53.560;10.062;2024-03-23T08:53:34;13.60;99.90
9973;DHT22;5027;53.560;10.062;2024-03-23T08:56:00;13.60;99.90
9973;DHT22;5027;53.560;10.062;2024-03-23T08:58:28;13.60;99.90
9973;DHT22;5027;53.560;10.062;2024-03-23T09:00:55;14.20;99.90
9973;DHT22;5027;53.560;10.062;2024-03-23T09:03:25;14.20;99.90
9973;DHT22;5027;53.560;10.062;2024-03-23T09:05:52;14.60;99.90
9973;DHT22;5027;53.560;10.062;2024-03-23T09:08:18;14.80;99.90
9973;DHT22;5027;53.560;10.062;2024-03-23T09:10:44;14.50;99.90
9973;DHT22;5027;53.560;10.062;2024-03-23T09:13:10;14.20;99.90
9973;DHT22;5027;53.560;10.062;2024-03-23T09:15:37;14.30;99.90
9973;DHT22;5027;53.560;10.062;2024-03-23T09:18:03;14.30;99.90
9973;DHT22;5027;53.560;10.062;2024-03-23T09:20:33;13.80;99.90
9973;DHT22;5027;53.560;10.062;2024-03-23T09:22:59;13.60;99.90
9973;DHT22;5027;53.560;10.062;2024-03-23T09:25:25;13.70;99.90
9973;DHT22;5027;53.560;10.062;2024-03-23T09:27:51;13.90;99.90
9973;DHT22;5027;53.560;10.062;2024-03-23T09:30:17;13.40;99.90
9973;DHT22;5027;53.560;10.062;2024-03-23T09:32:46;14.30;99.90
9973;DHT22;5027;53.560;10.062;2024-03-23T09:35:12;14.40;99.90
9973;DHT22;5027;53.560;10.062;2024-03-23T09:37:38;13.90;99.90
9973;DHT22;5027;53.560;10.062;2024-03-23T09:40:11;13.80;99.90
9973;DHT22;5027;53.560;10.062;2024-03-23T09:42:37;13.90;99.90
9973;DHT22;5027;53.560;10.062;2024-03-23T09:45:06;14.40;99.90
9973;DHT22;5027;53.560;10.062;2024-03-23T09:47:35;15.00;99.90
9973;DHT22;5027;53.560;10.062;2024-03-23T09:50:01;14.70;99.90
9973;DHT22;5027;53.560;10.062;2024-03-23T09:52:27;14.50;99.90
9973;DHT22;5027;53.560;10.062;2024-03-23T09:54:52;14.20;99.90
9973;DHT22;5027;53.560;10.062;2024-03-23T09:57:18;13.90;99.90
9973;DHT22;5027;53.560;10.062;2024-03-23T09:59:44;14.30;99.90
9973;DHT22;5027;53.560;10.062;2024-03-23T10:02:10;14.00;99.90
9973;DHT22;5027;53.560;10.062;2024-03-23T10:04:41;14.10;99.90
9973;DHT22;5027;53.560;10.062;2024-03-23T10:07:17;13.70;99.90
9973;DHT22;5027;53.560;10.062;2024-03-23T10:09:43;14.10;99.90
9973;DHT22;5027;53.560;10.062;2024-03-23T10:12:10;14.10;99.90
9973;DHT22;5027;53.560;10.062;2024-03-23T10:14:37;14.40;99.90
9973;DHT22;5027;53.560;10.062;2024-03-23T10:17:15;15.20;99.90
9973;DHT22;5027;53.560;10.062;2024-03-23T10:19:44;15.00;99.90
9973;DHT22;5027;53.560;10.062;2024-03-23T10:22:12;14.70;99.90
9973;DHT22;5027;53.560;10.062;2024-03-23T10:24:39;14.10;99.90
9973;DHT22;5027;53.560;10.062;2024-03-23T10:27:04;14.10;99.90
9973;DHT22;5027;53.560;10.062;2024-03-23T10:29:30;14.50;99.90
9973;DHT22;5027;53.560;10.062;2024-03-23T10:32:17;14.60;99.90
9973;DHT22;5027;53.560;10.062;2024-03-23T10:34:44;13.90;98.70
9973;DHT22;5027;53.560;10.062;2024-03-23T10:37:10;13.80;99.90
9973;DHT22;5027;53.560;10.062;2024-03-23T10:39:40;14.00;99.90
9973;DHT22;5027;53.560;10.062;2024-03-23T10:42:10;14.20;99.90
9973;DHT22;5027;53.560;10.062;2024-03-23T10:44:37;14.40;99.90
9973;DHT22;5027;53.560;10.062;2024-03-23T10:47:05;14.20;99.90
9973;DHT22;5027;53.560;10.062;2024-03-23T10:49:35;14.40;99.90
9973;DHT22;5027;53.560;10.062;2024-03-23T10:52:05;14.50;99.90
9973;DHT22;5027;53.560;10.062;2024-03-23T10:54:32;14.00;99.90
9973;DHT22;5027;53.560;10.062;2024-03-23T10:57:04;12.80;99.90
9973;DHT22;5027;53.560;10.062;2024-03-23T10:59:32;12.60;99.90
9973;DHT22;5027;53.560;10.062;2024-03-23T11:02:00;12.60;99.90
9973;DHT22;5027;53.560;10.062;2024-03-23T11:04:36;12.40;99.90
9973;DHT22;5027;53.560;10.062;2024-03-23T11:09:50;12.30;99.90
9973;DHT22;5027;53.560;10.062;2024-03-23T11:17:22;12.20;99.90
9973;DHT22;5027;53.560;10.062;2024-03-23T11:19:58;12.20;99.90
9973;DHT22;5027;53.560;10.062;2024-03-23T11:22:47;12.50;99.90
9973;DHT22;5027;53.560;10.062;2024-03-23T11:25:20;13.00;99.90
9973;DHT22;5027;53.560;10.062;2024-03-23T11:27:51;13.10;99.90
9973;DHT22;5027;53.560;10.062;2024-03-23T11:30:20;12.80;99.90
9973;DHT22;5027;53.560;10.062;2024-03-23T11:32:49;12.60;99.90
9973;DHT22;5027;53.560;10.062;2024-03-23T11:38:14;12.60;99.90
9973;DHT22;5027;53.560;10.062;2024-03-23T11:40:47;12.60;99.90
9973;DHT22;5027;53.560;10.062;2024-03-23T11:43:16;12.60;99.90
9973;DHT22;5027;53.560;10.062;2024-03-23T11:45:47;12.70;99.90
9973;DHT22;5027;53.560;10.062;2024-03-23T11:48:14;12.70;99.90
9973;DHT22;5027;53.560;10.062;2024-03-23T11:50:45;12.80;99.90
9973;DHT22;5027;53.560;10.062;2024-03-23T11:53:21;12.80;99.90
9973;DHT22;5027;53.560;10.062;2024-03-23T11:55:57;13.30;99.90
9973;DHT22;5027;53.560;10.062;2024-03-23T11:58:24;13.20;99.90
9973;DHT22;5027;53.560;10.062;2024-03-23T12:00:52;13.30;99.90
9973;DHT22;5027;53.560;10.062;2024-03-23T12:03:19;13.40;99.90
9973;DHT22;5027;53.560;10.062;2024-03-23T12:05:48;13.50;99.90
9973;DHT22;5027;53.560;10.062;2024-03-23T12:08:16;13.80;99.90
9973;DHT22;5027;53.560;10.062;2024-03-23T12:10:48;13.90;99.90
9973;DHT22;5027;53.560;10.062;2024-03-23T12:13:18;14.00;99.50
9973;DHT22;5027;53.560;10.062;2024-03-23T12:15:45;13.90;99.90
9973;DHT22;5027;53.560;10.062;2024-03-23T12:18:11;13.90;99.90
9973;DHT22;5027;53.560;10.062;2024-03-23T12:20:38;14.70;99.90
9973;DHT22;5027;53.560;10.062;2024-03-23T12:23:07;14.80;99.90
9973;DHT22;5027;53.560;10.062;2024-03-23T12:25:38;14.30;99.90
9973;DHT22;5027;53.560;10.062;2024-03-23T12:28:05;13.90;99.90
9973;DHT22;5027;53.560;10.062;2024-03-23T12:30:35;13.70;99.90
9973;DHT22;5027;53.560;10.062;2024-03-23T12:33:03;13.60;99.90
9973;DHT22;5027;53.560;10.062;2024-03-23T12:35:29;13.50;99.90
9973;DHT22;5027;53.560;10.062;2024-03-23T12:37:55;13.30;99.90
9973;DHT22;5027;53.560;10.062;2024-03-23T12:40:21;13.20;99.90
9973;DHT22;5027;53.560;10.062;2024-03-23T12:42:46;13.20;99.90
9973;DHT22;5027;53.560;10.062;2024-03-23T12:45:12;13.20;99.90
9973;DHT22;5027;53.560;10.062;2024-03-23T12:47:38;13.30;99.90
9973;DHT22;5027;53.560;10.062;2024-03-23T12:50:04;13.20;99.90
9973;DHT22;5027;53.560;10.062;2024-03-23T12:52:32;13.00;99.90
9973;DHT22;5027;53.560;10.062;2024-03-23T12:54:58;12.90;99.90
9973;DHT22;5027;53.560;10.062;2024-03-23T12:57:24;12.90;99.90
9973;DHT22;5027;53.560;10.062;2024-03-23T12:59:51;13.00;99.90
9973;DHT22;5027;53.560;10.062;2024-03-23T13:02:22;13.50;99.90
9973;DHT22;5027;53.560;10.062;2024-03-23T13:04:52;14.40;99.90
9973;DHT22;5027;53.560;10.062;2024-03-23T13:07:19;14.60;99.90
9973;DHT22;5027;53.560;10.062;2024-03-23T13:09:45;14.60;99.90
9973;DHT22;5027;53.560;10.062;2024-03-23T13:12:11;14.80;99.90
9973;DHT22;5027;53.560;10.062;2024-03-23T13:14:40;14.10;99.90
9973;DHT22;5027;53.560;10.062;2024-03-23T13:17:06;13.20;99.90
9973;DHT22;5027;53.560;10.062;2024-03-23T13:19:33;12.80;99.90
9973;DHT22;5027;53.560;10.062;2024-03-23T13:21:59;12.50;99.90
9973;DHT22;5027;53.560;10.062;2024-03-23T13:24:26;12.70;99.90
9973;DHT22;5027;53.560;10.062;2024-03-23T13:26:56;12.50;99.90
9973;DHT22;5027;53.560;10.062;2024-03-23T13:29:26;12.30;99.90
9973;DHT22;5027;53.560;10.062;2024-03-23T13:31:52;12.20;99.90
9973;DHT22;5027;53.560;10.062;2024-03-23T13:34:19;12.10;99.90
9973;DHT22;5027;53.560;10.062;2024-03-23T13:36:46;11.90;99.90
9973;DHT22;5027;53.560;10.062;2024-03-23T13:39:12;12.00;99.90
9973;DHT22;5027;53.560;10.062;2024-03-23T13:41:39;11.90;99.90
9973;DHT22;5027;53.560;10.062;2024-03-23T13:44:08;11.70;99.90
9973;DHT22;5027;53.560;10.062;2024-03-23T13:46:40;12.00;99.90
9973;DHT22;5027;53.560;10.062;2024-03-23T13:49:29;12.20;99.90
9973;DHT22;5027;53.560;10.062;2024-03-23T13:52:05;12.30;99.90
9973;DHT22;5027;53.560;10.062;2024-03-23T13:54:32;12.30;99.90
9973;DHT22;5027;53.560;10.062;2024-03-23T13:56:58;12.20;99.90
9973;DHT22;5027;53.560;10.062;2024-03-23T13:59:25;12.00;99.90
9973;DHT22;5027;53.560;10.062;2024-03-23T14:01:51;12.40;99.90
9973;DHT22;5027;53.560;10.062;2024-03-23T14:04:20;12.90;99.90
9973;DHT22;5027;53.560;10.062;2024-03-23T14:06:46;13.90;99.90
9973;DHT22;5027;53.560;10.062;2024-03-23T14:09:13;13.50;99.90
9973;DHT22;5027;53.560;10.062;2024-03-23T14:11:41;13.10;99.90
9973;DHT22;5027;53.560;10.062;2024-03-23T14:14:09;13.70;99.90
9973;DHT22;5027;53.560;10.062;2024-03-23T14:16:36;13.70;99.90
9973;DHT22;5027;53.560;10.062;2024-03-23T14:19:02;13.80;99.90
9973;DHT22;5027;53.560;10.062;2024-03-23T14:21:29;14.00;99.90
9973;DHT22;5027;53.560;10.062;2024-03-23T14:23:55;13.80;99.90
9973;DHT22;5027;53.560;10.062;2024-03-23T14:26:21;13.80;99.80
9973;DHT22;5027;53.560;10.062;2024-03-23T14:28:50;13.90;99.90
9973;DHT22;5027;53.560;10.062;2024-03-23T14:31:16;13.80;99.20
9973;DHT22;5027;53.560;10.062;2024-03-23T14:33:42;13.60;98.30
9973;DHT22;5027;53.560;10.062;2024-03-23T14:36:16;14.10;99.90
9973;DHT22;5027;53.560;10.062;2024-03-23T14:38:42;14.30;99.90
9973;DHT22;5027;53.560;10.062;2024-03-23T14:41:08;14.00;99.90
9973;DHT22;5027;53.560;10.062;2024-03-23T14:43:36;13.80;97.90
9973;DHT22;5027;53.560;10.062;2024-03-23T14:46:12;14.10;99.90
9973;DHT22;5027;53.560;10.062;2024-03-23T14:48:39;14.30;99.90
9973;DHT22;5027;53.560;10.062;2024-03-23T14:51:06;14.60;99.90
9973;DHT22;5027;53.560;10.062;2024-03-23T14:53:38;14.40;98.70
9973;DHT22;5027;53.560;10.062;2024-03-23T14:56:09;14.40;99.90
9973;DHT22;5027;53.560;10.062;2024-03-23T14:58:41;14.40;99.90
9973;DHT22;5027;53.560;10.062;2024-03-23T15:01:08;14.60;99.90
9973;DHT22;5027;53.560;10.062;2024-03-23T15:03:37;14.80;99.90
9973;DHT22;5027;53.560;10.062;2024-03-23T15:06:04;14.90;99.90
9973;DHT22;5027;53.560;10.062;2024-03-23T15:08:30;14.60;99.90
9973;DHT22;5027;53.560;10.062;2024-03-23T15:11:02;13.70;99.90
9973;DHT22;5027;53.560;10.062;2024-03-23T15:13:37;13.80;99.90
9973;DHT22;5027;53.560;10.062;2024-03-23T15:16:04;13.80;99.90
9973;DHT22;5027;53.560;10.062;2024-03-23T15:18:31;13.60;99.90
9973;DHT22;5027;53.560;10.062;2024-03-23T15:21:02;13.60;99.90
9973;DHT22;5027;53.560;10.062;2024-03-23T15:23:33;13.60;99.90
9973;DHT22;5027;53.560;10.062;2024-03-23T15:26:01;13.70;99.90
9973;DHT22;5027;53.560;10.062;2024-03-23T15:28:27;13.70;99.90
9973;DHT22;5027;53.560;10.062;2024-03-23T15:31:07;13.60;99.90
9973;DHT22;5027;53.560;10.062;2024-03-23T15:33:35;14.10;99.90
9973;DHT22;5027;53.560;10.062;2024-03-23T15:36:05;14.00;99.90
9973;DHT22;5027;53.560;10.062;2024-03-23T15:38:31;13.50;99.90
9973;DHT22;5027;53.560;10.062;2024-03-23T15:40:57;13.50;99.90
9973;DHT22;5027;53.560;10.062;2024-03-23T15:43:23;13.40;99.90
9973;DHT22;5027;53.560;10.062;2024-03-23T15:46:03;13.20;99.90
9973;DHT22;5027;53.560;10.062;2024-03-23T15:48:30;12.90;99.90
9973;DHT22;5027;53.560;10.062;2024-03-23T15:51:02;12.90;99.90
9973;DHT22;5027;53.560;10.062;2024-03-23T15:53:28;12.90;99.90
9973;DHT22;5027;53.560;10.062;2024-03-23T15:56:01;12.90;99.90
9973;DHT22;5027;53.560;10.062;2024-03-23T15:58:29;12.80;99.90
9973;DHT22;5027;53.560;10.062;2024-03-23T16:01:08;12.70;99.90
9973;DHT22;5027;53.560;10.062;2024-03-23T16:03:37;12.60;99.90
9973;DHT22;5027;53.560;10.062;2024-03-23T16:06:07;12.50;99.90
9973;DHT22;5027;53.560;10.062;2024-03-23T16:08:34;12.60;99.90
9973;DHT22;5027;53.560;10.062;2024-03-23T16:11:04;12.70;99.90
9973;DHT22;5027;53.560;10.062;2024-03-23T16:13:30;12.70;99.90
9973;DHT22;5027;53.560;10.062;2024-03-23T16:15:57;12.50;99.90
9973;DHT22;5027;53.560;10.062;2024-03-23T16:18:24;12.30;99.90
9973;DHT22;5027;53.560;10.062;2024-03-23T16:20:54;12.20;99.90
9973;DHT22;5027;53.560;10.062;2024-03-23T16:23:20;12.50;99.90
9973;DHT22;5027;53.560;10.062;2024-03-23T16:25:47;12.40;99.90
9973;DHT22;5027;53.560;10.062;2024-03-23T16:28:32;11.90;99.90
9973;DHT22;5027;53.560;10.062;2024-03-23T16:30:59;11.80;99.90
9973;DHT22;5027;53.560;10.062;2024-03-23T16:33:26;12.00;99.90
9973;DHT22;5027;53.560;10.062;2024-03-23T16:38:33;12.20;99.90
9973;DHT22;5027;53.560;10.062;2024-03-23T16:41:03;12.90;99.90
9973;DHT22;5027;53.560;10.062;2024-03-23T16:43:34;13.80;99.90
9973;DHT22;5027;53.560;10.062;2024-03-23T16:48:28;13.60;99.90
9973;DHT22;5027;53.560;10.062;2024-03-23T16:50:57;14.00;99.90
9973;DHT22;5027;53.560;10.062;2024-03-23T16:53:23;13.70;99.90
9973;DHT22;5027;53.560;10.062;2024-03-23T16:56:07;14.00;99.90